createdAt,value
2018-01-22T00:00:19.362Z,100691.59
2018-01-22T00:02:47.899Z,100684.27
2018-01-22T00:05:17.036Z,100686.11
2018-01-22T00:07:45.463Z,100679.98
2018-01-22T00:10:13.840Z,100668.97
2018-01-22T00:12:42.270Z,100670.29
2018-01-22T00:15:10.733Z,100670.95
2018-01-22T00:17:40.023Z,100666.94
2018-01-22T00:20:08.426Z,100659.41
2018-01-22T00:22:36.829Z,100652.77
2018-01-22T00:25:05.252Z,100652.93
2018-01-22T00:27:34.457Z,100656.52
2018-01-22T00:30:02.887Z,100646.73
2018-01-22T00:32:31.285Z,100642.45
2018-01-22T00:34:59.719Z,100627.92
2018-01-22T00:37:28.176Z,100621.99
2018-01-22T00:39:57.428Z,100627.80
2018-01-22T00:42:25.835Z,100626.87
2018-01-22T00:44:54.224Z,100618.09
2018-01-22T00:47:22.600Z,100592.98
2018-01-22T00:49:51.080Z,100600.64
2018-01-22T00:52:19.449Z,100605.47
2018-01-22T00:54:47.879Z,100618.67
2018-01-22T00:57:16.395Z,100622.68
2018-01-22T00:59:44.843Z,100617.13
2018-01-22T01:02:13.229Z,100607.92
2018-01-22T01:04:41.679Z,100599.31
2018-01-22T01:07:10.925Z,100593.89
2018-01-22T01:09:39.368Z,100598.67
2018-01-22T01:12:07.825Z,100597.83
2018-01-22T01:14:37.004Z,100587.35
2018-01-22T01:17:05.436Z,100582.61
2018-01-22T01:19:33.889Z,100584.25
2018-01-22T01:22:03.069Z,100577.59
2018-01-22T01:24:31.437Z,100574.22
2018-01-22T01:26:59.859Z,100573.32
2018-01-22T01:29:28.319Z,100554.33
2018-01-22T01:31:57.546Z,100541.66
2018-01-22T01:34:26.178Z,100538.92
2018-01-22T01:36:54.557Z,100524.47
2018-01-22T01:39:22.996Z,100516.96
2018-01-22T01:41:51.490Z,100516.52
2018-01-22T01:44:19.926Z,100502.45
2018-01-22T01:46:48.321Z,100494.78
2018-01-22T01:49:17.493Z,100492.61
2018-01-22T01:51:45.858Z,100488.55
2018-01-22T01:54:14.278Z,100492.27
2018-01-22T01:56:42.680Z,100491.19
2018-01-22T01:59:11.060Z,100489.88
2018-01-22T02:01:40.221Z,100484.70
2018-01-22T02:04:08.648Z,100478.75
2018-01-22T02:06:37.101Z,100466.94
2018-01-22T02:09:05.691Z,100474.61
2018-01-22T02:11:34.066Z,100478.78
2018-01-22T02:14:02.495Z,100476.72
2018-01-22T02:16:31.203Z,100483.05
2018-01-22T02:18:59.649Z,100489.73
2018-01-22T02:21:28.077Z,100476.94
2018-01-22T02:23:57.269Z,100468.63
2018-01-22T02:26:26.496Z,100464.75
2018-01-22T02:28:54.989Z,100454.18
2018-01-22T02:31:24.153Z,100444.06
2018-01-22T02:33:53.297Z,100436.55
2018-01-22T02:36:21.656Z,100431.14
2018-01-22T02:38:50.060Z,100421.09
2018-01-22T02:41:18.420Z,100412.59
2018-01-22T02:43:46.869Z,100407.25
2018-01-22T02:46:15.343Z,100400.09
2018-01-22T02:48:44.558Z,100389.28
2018-01-22T02:51:12.994Z,100377.78
2018-01-22T02:53:41.468Z,100375.37
2018-01-22T02:56:09.919Z,100382.95
2018-01-22T02:58:38.371Z,100376.24
2018-01-22T03:01:06.753Z,100376.72
2018-01-22T03:03:36.074Z,100359.86
2018-01-22T03:06:04.513Z,100349.11
2018-01-22T03:08:33.695Z,100365.53
2018-01-22T03:11:02.144Z,100381.27
2018-01-22T03:13:31.350Z,100382.39
2018-01-22T03:15:59.807Z,100382.55
2018-01-22T03:18:28.256Z,100385.13
2018-01-22T03:20:56.648Z,100389.67
2018-01-22T03:23:25.843Z,100382.95
2018-01-22T03:25:54.996Z,100382.00
2018-01-22T03:28:23.376Z,100377.84
2018-01-22T03:30:51.783Z,100376.91
2018-01-22T03:33:20.205Z,100374.81
2018-01-22T03:35:48.660Z,100366.54
2018-01-22T03:38:17.265Z,100366.06
2018-01-22T03:40:45.639Z,100362.79
2018-01-22T03:43:14.002Z,100350.80
2018-01-22T03:45:43.136Z,100331.53
2018-01-22T03:48:11.516Z,100342.63
2018-01-22T03:50:39.972Z,100350.33
2018-01-22T03:53:08.366Z,100360.31
2018-01-22T03:55:36.748Z,100364.22
2018-01-22T03:58:05.172Z,100354.61
2018-01-22T04:00:34.480Z,100350.90
2018-01-22T04:03:02.907Z,100336.20
2018-01-22T04:05:31.311Z,100333.19
2018-01-22T04:07:59.704Z,100321.14
2018-01-22T04:10:28.139Z,100317.60
2018-01-22T04:12:56.571Z,100306.59
2018-01-22T04:15:24.956Z,100297.21
2018-01-22T04:17:53.395Z,100291.14
2018-01-22T04:20:21.848Z,100299.98
2018-01-22T04:22:50.292Z,100299.05
2018-01-22T04:25:18.729Z,100300.41
2018-01-22T04:27:47.184Z,100287.75
2018-01-22T04:30:15.552Z,100280.31
2018-01-22T04:32:44.779Z,100287.19
2018-01-22T04:35:13.185Z,100279.55
2018-01-22T04:37:41.620Z,100281.35
2018-01-22T04:40:10.061Z,100287.45
2018-01-22T04:42:38.597Z,100287.55
2018-01-22T04:45:07.034Z,100277.54
2018-01-22T04:47:36.247Z,100273.57
2018-01-22T04:50:04.688Z,100277.08
2018-01-22T04:52:33.072Z,100272.21
2018-01-22T04:55:01.445Z,100257.55
2018-01-22T04:57:29.849Z,100253.84
2018-01-22T04:59:58.274Z,100252.27
2018-01-22T05:02:26.663Z,100240.70
2018-01-22T05:04:55.049Z,100237.16
2018-01-22T05:07:23.417Z,100228.22
2018-01-22T05:09:51.840Z,100219.89
2018-01-22T05:12:20.291Z,100218.03
2018-01-22T05:14:48.751Z,100229.08
2018-01-22T05:17:17.343Z,100248.67
2018-01-22T05:19:45.820Z,100254.42
2018-01-22T05:22:14.287Z,100243.48
2018-01-22T05:24:42.778Z,100245.18
2018-01-22T05:27:11.194Z,100239.31
2018-01-22T05:29:39.916Z,100230.53
2018-01-22T05:32:09.152Z,100232.89
2018-01-22T05:34:37.528Z,100238.02
2018-01-22T05:37:05.893Z,100238.22
2018-01-22T05:39:34.281Z,100236.58
2018-01-22T05:42:02.719Z,100220.34
2018-01-22T05:44:31.117Z,100204.73
2018-01-22T05:47:00.312Z,100190.81
2018-01-22T05:49:28.768Z,100188.14
2018-01-22T05:51:57.180Z,100188.18
2018-01-22T05:54:25.627Z,100192.28
2018-01-22T05:56:54.005Z,100196.56
2018-01-22T05:59:22.439Z,100190.66
2018-01-22T06:01:50.802Z,100181.44
2018-01-22T06:04:19.234Z,100171.21
2018-01-22T06:06:47.679Z,100166.66
2018-01-22T06:09:16.094Z,100147.90
2018-01-22T06:11:44.477Z,100150.14
2018-01-22T06:14:12.877Z,100165.16
2018-01-22T06:16:41.311Z,100170.34
2018-01-22T06:19:09.690Z,100164.34
2018-01-22T06:21:38.124Z,100146.81
2018-01-22T06:24:07.257Z,100136.27
2018-01-22T06:26:35.691Z,100135.42
2018-01-22T06:29:04.919Z,100154.61
2018-01-22T06:31:33.362Z,100163.78
2018-01-22T06:34:01.748Z,100167.06
2018-01-22T06:36:30.124Z,100169.83
2018-01-22T06:38:58.481Z,100171.89
2018-01-22T06:41:26.863Z,100166.28
2018-01-22T06:43:55.300Z,100165.59
2018-01-22T06:46:23.739Z,100159.34
2018-01-22T06:48:52.143Z,100158.73
2018-01-22T06:51:21.272Z,100157.34
2018-01-22T06:53:49.756Z,100145.08
2018-01-22T06:56:18.180Z,100153.61
2018-01-22T06:58:46.565Z,100149.27
2018-01-22T07:01:14.987Z,100154.63
2018-01-22T07:03:43.388Z,100155.09
2018-01-22T07:06:11.749Z,100144.45
2018-01-22T07:08:40.112Z,100144.70
2018-01-22T07:11:08.477Z,100149.97
2018-01-22T07:13:36.903Z,100145.13
2018-01-22T07:16:05.370Z,100140.43
2018-01-22T07:18:33.963Z,100150.27
2018-01-22T07:21:02.384Z,100150.82
2018-01-22T07:23:31.594Z,100146.14
2018-01-22T07:26:00.005Z,100142.25
2018-01-22T07:28:28.360Z,100138.52
2018-01-22T07:30:56.783Z,100144.99
2018-01-22T07:33:25.197Z,100134.78
2018-01-22T07:35:53.562Z,100124.97
2018-01-22T07:38:21.987Z,100122.94
2018-01-22T07:40:50.461Z,100115.62
2018-01-22T07:43:18.832Z,100119.03
2018-01-22T07:45:47.210Z,100121.66
2018-01-22T07:48:16.367Z,100121.50
2018-01-22T07:50:45.508Z,100128.34
2018-01-22T07:53:14.637Z,100131.87
2018-01-22T07:55:43.079Z,100129.33
2018-01-22T07:58:11.439Z,100123.73
2018-01-22T08:00:39.805Z,100124.45
2018-01-22T08:03:08.192Z,100122.16
2018-01-22T08:05:36.620Z,100119.38
2018-01-22T08:08:05.108Z,100109.50
2018-01-22T08:10:33.549Z,100116.47
2018-01-22T08:13:02.751Z,100120.10
2018-01-22T08:15:31.909Z,100120.34
2018-01-22T08:18:00.519Z,100127.36
2018-01-22T08:20:29.650Z,100130.02
2018-01-22T08:22:58.009Z,100133.11
2018-01-22T08:25:27.157Z,100131.30
2018-01-22T08:27:55.517Z,100131.92
2018-01-22T08:30:23.940Z,100128.33
2018-01-22T08:32:53.179Z,100128.35
2018-01-22T08:35:21.562Z,100119.09
2018-01-22T08:37:49.984Z,100115.56
2018-01-22T08:40:18.543Z,100108.28
2018-01-22T08:42:46.906Z,100108.59
2018-01-22T08:45:15.337Z,100093.81
2018-01-22T08:47:43.742Z,100093.00
2018-01-22T08:50:12.858Z,100101.74
2018-01-22T08:52:41.225Z,100095.70
2018-01-22T08:55:10.536Z,100095.80
2018-01-22T08:57:38.935Z,100088.08
2018-01-22T09:00:07.302Z,100077.95
2018-01-22T09:02:35.744Z,100072.50
2018-01-22T09:05:04.951Z,100066.41
2018-01-22T09:07:34.179Z,100066.89
2018-01-22T09:10:02.661Z,100057.23
2018-01-22T09:12:31.028Z,100057.08
2018-01-22T09:14:59.479Z,100051.94
2018-01-22T09:17:28.610Z,100048.92
2018-01-22T09:19:57.030Z,100047.09
2018-01-22T09:22:25.491Z,100047.66
2018-01-22T09:24:53.923Z,100042.75
2018-01-22T09:27:23.051Z,100037.82
2018-01-22T09:29:51.488Z,100035.75
2018-01-22T09:32:20.629Z,100036.63
2018-01-22T09:34:49.209Z,100032.52
2018-01-22T09:37:17.631Z,100026.36
2018-01-22T09:39:46.127Z,100034.61
2018-01-22T09:42:15.282Z,100038.98
2018-01-22T09:44:43.636Z,100042.00
2018-01-22T09:47:12.004Z,100044.09
2018-01-22T09:49:41.204Z,100036.16
2018-01-22T09:52:09.640Z,100034.59
2018-01-22T09:54:38.033Z,100029.03
2018-01-22T09:57:06.465Z,100024.33
2018-01-22T09:59:34.832Z,100005.70
2018-01-22T10:02:03.228Z,100006.52
2018-01-22T10:04:31.591Z,100003.03
2018-01-22T10:06:59.951Z,99996.31
2018-01-22T10:09:29.104Z,100005.89
2018-01-22T10:11:57.463Z,100005.86
2018-01-22T10:14:25.832Z,100011.73
2018-01-22T10:16:54.264Z,100013.49
2018-01-22T10:19:22.692Z,100018.89
2018-01-22T10:21:51.131Z,100017.14
2018-01-22T10:24:20.357Z,100011.98
2018-01-22T10:26:48.796Z,100020.61
2018-01-22T10:29:17.231Z,100015.64
2018-01-22T10:31:45.678Z,100007.27
2018-01-22T10:34:14.863Z,99991.39
2018-01-22T10:36:44.029Z,99989.87
2018-01-22T10:39:12.400Z,99984.80
2018-01-22T10:41:40.820Z,99972.56
2018-01-22T10:44:10.046Z,99976.81
2018-01-22T10:46:38.408Z,99971.12
2018-01-22T10:49:07.583Z,99969.62
2018-01-22T10:51:35.956Z,99954.34
2018-01-22T10:54:04.372Z,99941.58
2018-01-22T10:56:32.780Z,99932.05
2018-01-22T10:59:01.206Z,99918.56
2018-01-22T11:01:29.614Z,99906.97
2018-01-22T11:03:58.083Z,99904.06
2018-01-22T11:06:27.288Z,99902.48
2018-01-22T11:08:56.421Z,99914.88
2018-01-22T11:11:24.879Z,99923.14
2018-01-22T11:13:53.317Z,99925.10
2018-01-22T11:16:21.809Z,99916.23
2018-01-22T11:18:50.944Z,99931.18
2018-01-22T11:21:19.359Z,99937.95
2018-01-22T11:23:47.815Z,99933.95
2018-01-22T11:26:16.235Z,99924.19
2018-01-22T11:28:44.608Z,99918.97
2018-01-22T11:31:13.075Z,99916.03
2018-01-22T11:33:41.428Z,99916.92
2018-01-22T11:36:09.814Z,99916.36
2018-01-22T11:38:39.095Z,99911.19
2018-01-22T11:41:07.543Z,99903.13
2018-01-22T11:43:36.697Z,99900.82
2018-01-22T11:46:05.154Z,99889.31
2018-01-22T11:48:33.532Z,99896.28
2018-01-22T11:51:01.921Z,99889.90
2018-01-22T11:53:30.329Z,99881.84
2018-01-22T11:55:58.786Z,99884.51
2018-01-22T11:58:27.989Z,99882.46
2018-01-22T12:00:56.333Z,99875.48
2018-01-22T12:03:25.457Z,99875.38
2018-01-22T12:05:53.828Z,99889.90
2018-01-22T12:08:22.196Z,99884.80
2018-01-22T12:10:50.568Z,99877.84
2018-01-22T12:13:19.736Z,99867.62
2018-01-22T12:15:48.155Z,99864.02
2018-01-22T12:18:16.524Z,99849.88
2018-01-22T12:20:45.725Z,99854.84
2018-01-22T12:23:14.108Z,99843.38
2018-01-22T12:25:42.531Z,99841.49
2018-01-22T12:28:11.132Z,99838.89
2018-01-22T12:30:39.506Z,99839.63
2018-01-22T12:33:07.869Z,99843.17
2018-01-22T12:35:36.331Z,99847.78
2018-01-22T12:38:04.718Z,99838.08
2018-01-22T12:40:33.167Z,99838.56
2018-01-22T12:43:01.617Z,99834.37
2018-01-22T12:45:30.058Z,99828.30
2018-01-22T12:47:58.519Z,99831.00
2018-01-22T12:50:26.917Z,99823.99
2018-01-22T12:52:55.351Z,99831.34
2018-01-22T12:55:23.734Z,99830.59
2018-01-22T12:57:52.192Z,99830.41
2018-01-22T13:00:20.561Z,99822.73
2018-01-22T13:02:48.921Z,99828.33
2018-01-22T13:05:17.473Z,99834.13
2018-01-22T13:07:45.896Z,99824.22
2018-01-22T13:10:14.337Z,99836.89
2018-01-22T13:12:42.740Z,99826.17
2018-01-22T13:15:11.100Z,99820.91
2018-01-22T13:17:39.529Z,99812.75
2018-01-22T13:20:07.896Z,99816.78
2018-01-22T13:22:36.347Z,99815.84
2018-01-22T13:25:04.769Z,99811.19
2018-01-22T13:27:33.133Z,99819.23
2018-01-22T13:30:01.633Z,99815.19
2018-01-22T13:32:30.094Z,99817.17
2018-01-22T13:34:58.473Z,99818.94
2018-01-22T13:37:26.856Z,99821.39
2018-01-22T13:40:00.736Z,99815.82
2018-01-22T13:42:29.110Z,99818.38
2018-01-22T13:44:57.541Z,99810.42
2018-01-22T13:47:27.387Z,99817.73
2018-01-22T13:49:56.027Z,99819.68
2018-01-22T13:52:24.464Z,99812.61
2018-01-22T13:54:52.840Z,99821.53
2018-01-22T13:57:21.224Z,99815.05
2018-01-22T13:59:49.669Z,99824.54
2018-01-22T14:02:18.884Z,99829.67
2018-01-22T14:04:47.300Z,99828.05
2018-01-22T14:07:15.697Z,99835.58
2018-01-22T14:09:44.123Z,99843.09
2018-01-22T14:12:12.516Z,99843.72
2018-01-22T14:14:40.937Z,99845.73
2018-01-22T14:17:09.308Z,99849.42
2018-01-22T14:19:37.693Z,99846.38
2018-01-22T14:22:06.295Z,99839.20
2018-01-22T14:24:34.715Z,99841.63
2018-01-22T14:27:03.087Z,99843.42
2018-01-22T14:29:32.392Z,99843.80
2018-01-22T14:32:00.745Z,99838.95
2018-01-22T14:34:29.097Z,99841.96
2018-01-22T14:36:57.468Z,99839.26
2018-01-22T14:39:25.832Z,99843.27
2018-01-22T14:41:54.260Z,99845.88
2018-01-22T14:44:22.640Z,99849.73
2018-01-22T14:46:51.020Z,99843.63
2018-01-22T14:49:20.178Z,99852.16
2018-01-22T14:51:48.609Z,99851.97
2018-01-22T14:54:17.004Z,99854.78
2018-01-22T14:56:45.436Z,99854.70
2018-01-22T14:59:13.879Z,99852.70
2018-01-22T15:01:42.347Z,99850.48
2018-01-22T15:04:10.793Z,99856.95
2018-01-22T15:06:39.931Z,99854.25
2018-01-22T15:09:08.344Z,99852.95
2018-01-22T15:11:36.712Z,99860.22
2018-01-22T15:14:05.080Z,99859.27
2018-01-22T15:16:33.580Z,99857.58
2018-01-22T15:19:02.020Z,99861.88
2018-01-22T15:21:30.399Z,99858.95
2018-01-22T15:23:58.776Z,99861.45
2018-01-22T15:26:27.207Z,99858.88
2018-01-22T15:28:56.453Z,99867.88
2018-01-22T15:31:24.891Z,99869.86
2018-01-22T15:33:53.256Z,99871.25
2018-01-22T15:36:21.715Z,99851.22
2018-01-22T15:38:50.116Z,99873.63
2018-01-22T15:41:18.544Z,99869.98
2018-01-22T15:43:47.008Z,99871.63
2018-01-22T15:46:16.204Z,99870.91
2018-01-22T15:48:45.404Z,99875.08
2018-01-22T15:51:14.644Z,99878.63
2018-01-22T15:53:43.083Z,99881.00
2018-01-22T15:56:12.288Z,99884.84
2018-01-22T15:58:40.824Z,99882.14
2018-01-22T16:01:09.177Z,99880.17
2018-01-22T16:03:37.538Z,99887.00
2018-01-22T16:06:05.998Z,99898.79
2018-01-22T16:08:34.431Z,99899.52
2018-01-22T16:11:03.636Z,99901.75
2018-01-22T16:13:32.101Z,99907.50
2018-01-22T16:16:00.539Z,99908.05
2018-01-22T16:18:29.775Z,99915.54
2018-01-22T16:20:58.204Z,99908.16
2018-01-22T16:23:26.635Z,99917.56
2018-01-22T16:25:55.097Z,99915.15
2018-01-22T16:28:23.583Z,99926.20
2018-01-22T16:30:52.004Z,99928.08
2018-01-22T16:33:20.369Z,99939.53
2018-01-22T16:35:48.796Z,99951.03
2018-01-22T16:38:17.932Z,99952.30
2018-01-22T16:40:46.349Z,99957.52
2018-01-22T16:43:14.775Z,99952.95
2018-01-22T16:45:43.199Z,99963.50
2018-01-22T16:48:11.668Z,99956.91
2018-01-22T16:50:40.865Z,99966.81
2018-01-22T16:53:09.300Z,99962.81
2018-01-22T16:55:37.825Z,99962.42
2018-01-22T16:58:06.263Z,99961.91
2018-01-22T17:00:34.629Z,99971.50
2018-01-22T17:03:03.119Z,99966.36
2018-01-22T17:05:32.266Z,99972.80
2018-01-22T17:08:00.707Z,99973.31
2018-01-22T17:10:29.164Z,99978.90
2018-01-22T17:12:58.347Z,99982.91
2018-01-22T17:15:26.775Z,99988.14
2018-01-22T17:17:55.231Z,99986.64
2018-01-22T17:20:24.424Z,99993.21
2018-01-22T17:22:53.663Z,99995.42
2018-01-22T17:25:22.029Z,99999.62
2018-01-22T17:27:50.400Z,99998.02
2018-01-22T17:30:19.711Z,99999.69
2018-01-22T17:32:48.087Z,100001.06
2018-01-22T17:35:16.450Z,100010.95
2018-01-22T17:37:45.606Z,100011.13
2018-01-22T17:40:14.023Z,100012.23
2018-01-22T17:42:42.400Z,100012.88
2018-01-22T17:45:11.771Z,100026.01
2018-01-22T17:47:40.194Z,100032.60
2018-01-22T17:50:08.572Z,100036.50
2018-01-22T17:52:37.779Z,100031.73
2018-01-22T17:55:06.215Z,100043.83
2018-01-22T17:57:34.616Z,100047.91
2018-01-22T18:00:03.776Z,100055.38
2018-01-22T18:02:32.202Z,100065.07
2018-01-22T18:05:00.609Z,100060.35
2018-01-22T18:07:28.988Z,100058.70
2018-01-22T18:09:57.345Z,100057.60
2018-01-22T18:12:26.481Z,100064.38
2018-01-22T18:14:54.949Z,100062.55
2018-01-22T18:17:23.383Z,100068.96
2018-01-22T18:19:52.563Z,100070.84
2018-01-22T18:22:20.984Z,100076.37
2018-01-22T18:24:49.409Z,100079.89
2018-01-22T18:27:17.830Z,100085.89
2018-01-22T18:29:46.272Z,100089.39
2018-01-22T18:32:14.712Z,100087.30
2018-01-22T18:34:43.102Z,100085.69
2018-01-22T18:37:11.536Z,100089.22
2018-01-22T18:39:40.745Z,100086.63
2018-01-22T18:42:09.892Z,100085.47
2018-01-22T18:44:38.277Z,100092.87
2018-01-22T18:47:06.634Z,100092.59
2018-01-22T18:49:35.028Z,100107.91
2018-01-22T18:52:03.456Z,100112.84
2018-01-22T18:54:32.691Z,100109.41
2018-01-22T18:57:01.135Z,100112.02
2018-01-22T18:59:29.515Z,100109.88
2018-01-22T19:01:58.899Z,100113.02
2018-01-22T19:04:27.241Z,100110.03
2018-01-22T19:06:56.382Z,100119.09
2018-01-22T19:09:24.839Z,100121.61
2018-01-22T19:11:53.215Z,100121.11
2018-01-22T19:14:21.573Z,100122.84
2018-01-22T19:16:50.054Z,100129.70
2018-01-22T19:19:18.437Z,100140.05
2018-01-22T19:21:46.857Z,100144.19
2018-01-22T19:24:16.021Z,100146.59
2018-01-22T19:26:44.372Z,100150.26
2018-01-22T19:29:12.796Z,100144.50
2018-01-22T19:31:41.181Z,100151.73
2018-01-22T19:34:09.610Z,100152.48
2018-01-22T19:36:37.972Z,100155.18
2018-01-22T19:39:07.138Z,100159.16
2018-01-22T19:41:35.591Z,100159.93
2018-01-22T19:44:04.030Z,100159.69
2018-01-22T19:46:32.405Z,100166.91
2018-01-22T19:49:01.644Z,100168.45
2018-01-22T19:51:30.012Z,100169.94
2018-01-22T19:53:58.439Z,100166.64
2018-01-22T19:56:27.016Z,100166.92
2018-01-22T19:58:55.388Z,100166.30
2018-01-22T20:01:24.449Z,100164.44
2018-01-22T20:03:52.940Z,100175.25
2018-01-22T20:06:21.304Z,100166.36
2018-01-22T20:08:49.750Z,100177.66
2018-01-22T20:11:19.505Z,100168.84
2018-01-22T20:13:47.862Z,100184.55
2018-01-22T20:16:16.305Z,100185.19
2018-01-22T20:18:44.731Z,100188.71
2018-01-22T20:21:13.167Z,100185.30
2018-01-22T20:23:41.801Z,100188.78
2018-01-22T20:26:10.228Z,100197.22
2018-01-22T20:28:38.596Z,100207.88
2018-01-22T20:31:07.265Z,100206.77
2018-01-22T20:33:35.624Z,100212.20
2018-01-22T20:36:04.053Z,100223.14
2018-01-22T20:38:32.688Z,100235.11
2018-01-22T20:41:01.116Z,100239.31
2018-01-22T20:43:29.477Z,100245.71
2018-01-22T20:45:57.920Z,100244.44
2018-01-22T20:48:26.280Z,100255.58
2018-01-22T20:50:56.192Z,100257.45
2018-01-22T20:53:25.415Z,100267.02
2018-01-22T20:55:53.801Z,100272.69
2018-01-22T20:58:22.307Z,100277.26
2018-01-22T21:00:50.692Z,100290.80
2018-01-22T21:03:19.088Z,100287.69
2018-01-22T21:05:47.511Z,100291.91
2018-01-22T21:08:15.892Z,100287.73
2018-01-22T21:10:44.245Z,100294.55
2018-01-22T21:13:13.387Z,100293.02
2018-01-22T21:15:41.839Z,100301.36
2018-01-22T21:18:10.280Z,100309.30
2018-01-22T21:20:38.698Z,100318.25
2018-01-22T21:23:07.081Z,100320.83
2018-01-22T21:25:35.473Z,100324.18
2018-01-22T21:28:03.833Z,100324.95
2018-01-22T21:30:32.233Z,100335.43
2018-01-22T21:33:00.631Z,100338.91
2018-01-22T21:35:29.067Z,100336.27
2018-01-22T21:37:57.503Z,100341.64
2018-01-22T21:40:25.900Z,100354.90
2018-01-22T21:42:54.256Z,100358.25
2018-01-22T21:45:23.383Z,100372.16
2018-01-22T21:47:52.512Z,100368.63
2018-01-22T21:50:20.934Z,100364.38
2018-01-22T21:52:49.409Z,100368.52
2018-01-22T21:55:17.844Z,100365.31
2018-01-22T21:57:46.217Z,100371.77
2018-01-22T22:00:14.651Z,100374.88
2018-01-22T22:02:43.779Z,100385.67
2018-01-22T22:05:12.897Z,100391.78
2018-01-22T22:07:41.303Z,100389.16
2018-01-22T22:10:09.669Z,100399.58
2018-01-22T22:12:38.101Z,100401.71
2018-01-22T22:15:07.267Z,100409.25
2018-01-22T22:17:35.692Z,100412.28
2018-01-22T22:20:04.820Z,100417.20
2018-01-22T22:22:33.220Z,100424.33
2018-01-22T22:25:01.635Z,100426.98
2018-01-22T22:27:30.827Z,100421.42
2018-01-22T22:29:59.218Z,100423.45
2018-01-22T22:32:28.226Z,100438.09
2018-01-22T22:34:56.887Z,100442.70
2018-01-22T22:37:26.084Z,100439.94
2018-01-22T22:39:54.464Z,100447.79
2018-01-22T22:42:22.915Z,100451.28
2018-01-22T22:44:51.335Z,100452.80
2018-01-22T22:47:20.531Z,100455.95
2018-01-22T22:49:49.687Z,100468.39
2018-01-22T22:52:19.011Z,100467.98
2018-01-22T22:54:47.443Z,100475.31
2018-01-22T22:57:15.974Z,100475.06
2018-01-22T22:59:44.359Z,100472.73
2018-01-22T23:02:12.721Z,100478.00
2018-01-22T23:04:41.088Z,100478.77
2018-01-22T23:07:09.452Z,100484.66
2018-01-22T23:09:37.863Z,100491.43
2018-01-22T23:12:06.663Z,100498.25
2018-01-22T23:14:35.857Z,100502.69
2018-01-22T23:17:05.095Z,100501.63
2018-01-22T23:19:33.478Z,100515.84
2018-01-22T23:22:01.902Z,100518.94
2018-01-22T23:24:30.313Z,100518.95
2018-01-22T23:26:59.445Z,100522.92
2018-01-22T23:29:27.887Z,100528.20
2018-01-22T23:31:57.078Z,100536.35
2018-01-22T23:34:26.276Z,100535.20
2018-01-22T23:36:54.672Z,100539.47
2018-01-22T23:39:23.851Z,100543.98
2018-01-22T23:41:53.065Z,100546.25
2018-01-22T23:44:22.291Z,100544.28
2018-01-22T23:46:50.684Z,100546.48
2018-01-22T23:49:19.040Z,100540.36
2018-01-22T23:51:47.421Z,100535.91
2018-01-22T23:54:20.697Z,100543.85
2018-01-22T23:56:49.080Z,100558.11
2018-01-22T23:59:18.271Z,100565.76
